createdAt,value
2022-10-09T00:01:24.606Z,95467.84
2022-10-09T00:03:54.190Z,95457.09
2022-10-09T00:06:23.573Z,95463.63
2022-10-09T00:08:50.495Z,95468.66
2022-10-09T00:11:25.764Z,95458.44
2022-10-09T00:13:53.759Z,95463.63
2022-10-09T00:16:21.885Z,95455.34
2022-10-09T00:18:49.218Z,95462.00
2022-10-09T00:21:23.619Z,95450.34
2022-10-09T00:23:52.075Z,95444.66
2022-10-09T00:26:19.626Z,95447.94
2022-10-09T00:28:47.239Z,95449.84
2022-10-09T00:31:15.315Z,95447.13
2022-10-09T00:33:42.350Z,95442.22
2022-10-09T00:36:15.529Z,95444.66
2022-10-09T00:38:42.548Z,95434.47
2022-10-09T00:41:22.062Z,95430.28
2022-10-09T00:43:56.622Z,95431.75
2022-10-09T00:46:48.259Z,95419.13
2022-10-09T00:49:28.283Z,95423.44
2022-10-09T00:51:57.904Z,95422.09
2022-10-09T00:54:29.907Z,95415.28
2022-10-09T00:56:56.923Z,95414.34
2022-10-09T00:59:25.222Z,95418.56
2022-10-09T01:01:52.746Z,95409.84
2022-10-09T01:04:19.776Z,95410.94
2022-10-09T01:07:11.524Z,95421.81
2022-10-09T01:09:50.760Z,95416.63
2022-10-09T01:12:46.539Z,95415.28
2022-10-09T01:15:24.559Z,95413.94
2022-10-09T01:18:15.759Z,95409.31
2022-10-09T01:20:56.690Z,95420.47
2022-10-09T01:23:35.131Z,95410.72
2022-10-09T01:26:17.169Z,95418.84
2022-10-09T01:28:48.148Z,95416.69
2022-10-09T01:31:18.332Z,95425.56
2022-10-09T01:33:46.614Z,95422.00
2022-10-09T01:36:16.534Z,95415.66
2022-10-09T01:38:45.146Z,95419.59
2022-10-09T01:41:11.989Z,95418.13
2022-10-09T01:43:38.752Z,95422.91
2022-10-09T01:46:27.414Z,95423.34
2022-10-09T01:49:08.697Z,95423.63
2022-10-09T01:51:44.916Z,95411.41
2022-10-09T01:54:14.627Z,95417.94
2022-10-09T01:56:44.523Z,95418.22
2022-10-09T01:59:18.864Z,95421.72
2022-10-09T02:01:47.603Z,95424.16
2022-10-09T02:04:19.812Z,95423.00
2022-10-09T02:06:49.150Z,95418.88
2022-10-09T02:09:33.489Z,95425.13
2022-10-09T02:12:07.366Z,95436.94
2022-10-09T02:14:35.667Z,95438.34
2022-10-09T02:17:12.363Z,95438.34
2022-10-09T02:19:46.506Z,95427.59
2022-10-09T02:22:21.007Z,95431.13
2022-10-09T02:24:48.490Z,95451.78
2022-10-09T02:27:16.511Z,95451.38
2022-10-09T02:29:45.300Z,95450.03
2022-10-09T02:32:12.904Z,95438.50
2022-10-09T02:34:40.164Z,95459.03
2022-10-09T02:37:08.236Z,95449.50
2022-10-09T02:39:35.409Z,95445.72
2022-10-09T02:42:02.717Z,95448.97
2022-10-09T02:44:29.563Z,95448.28
2022-10-09T02:46:56.449Z,95449.09
2022-10-09T02:49:23.241Z,95443.53
2022-10-09T02:51:50.107Z,95437.84
2022-10-09T02:54:17.124Z,95451.16
2022-10-09T02:56:44.070Z,95442.31
2022-10-09T02:59:10.946Z,95446.84
2022-10-09T03:01:37.900Z,95443.28
2022-10-09T03:04:05.162Z,95443.56
2022-10-09T03:06:32.739Z,95444.38
2022-10-09T03:08:59.575Z,95448.06
2022-10-09T03:11:26.589Z,95450.06
2022-10-09T03:13:54.660Z,95462.31
2022-10-09T03:16:24.544Z,95465.16
2022-10-09T03:18:53.022Z,95464.75
2022-10-09T03:21:25.311Z,95466.25
2022-10-09T03:23:53.598Z,95464.22
2022-10-09T03:26:23.230Z,95461.50
2022-10-09T03:28:52.055Z,95465.84
2022-10-09T03:31:50.454Z,95466.34
2022-10-09T03:34:07.639Z,95464.72
2022-10-09T03:36:34.411Z,95464.72
2022-10-09T03:39:01.243Z,95472.91
2022-10-09T03:41:28.031Z,95460.53
2022-10-09T03:43:54.789Z,95472.22
2022-10-09T03:46:21.709Z,95472.09
2022-10-09T03:48:48.574Z,95465.44
2022-10-09T03:51:15.434Z,95476.44
2022-10-09T03:53:42.238Z,95473.31
2022-10-09T03:56:09.004Z,95475.06
2022-10-09T03:58:35.803Z,95472.66
2022-10-09T04:01:02.741Z,95460.28
2022-10-09T04:03:29.714Z,95455.66
2022-10-09T04:05:56.593Z,95470.75
2022-10-09T04:08:23.430Z,95471.81
2022-10-09T04:10:59.860Z,95473.72
2022-10-09T04:13:27.031Z,95471.28
2022-10-09T04:15:54.889Z,95481.47
2022-10-09T04:18:22.440Z,95475.25
2022-10-09T04:20:51.389Z,95477.94
2022-10-09T04:23:19.451Z,95481.59
2022-10-09T04:25:47.036Z,95478.63
2022-10-09T04:28:13.988Z,95478.50
2022-10-09T04:30:41.302Z,95484.16
2022-10-09T04:33:12.681Z,95475.09
2022-10-09T04:35:44.562Z,95483.91
2022-10-09T04:38:12.163Z,95481.06
2022-10-09T04:40:39.053Z,95487.81
2022-10-09T04:43:05.830Z,95499.75
2022-10-09T04:45:33.268Z,95494.59
2022-10-09T04:48:00.733Z,95498.00
2022-10-09T04:50:27.672Z,95489.59
2022-10-09T04:53:01.280Z,95502.75
2022-10-09T04:55:31.638Z,95506.28
2022-10-09T04:57:58.408Z,95492.97
2022-10-09T05:00:25.624Z,95494.91
2022-10-09T05:02:52.594Z,95496.38
2022-10-09T05:05:19.431Z,95504.28
2022-10-09T05:07:46.558Z,95502.91
2022-10-09T05:10:13.421Z,95507.09
2022-10-09T05:12:40.297Z,95510.22
2022-10-09T05:15:07.922Z,95517.81
2022-10-09T05:17:34.885Z,95515.91
2022-10-09T05:20:01.900Z,95520.94
2022-10-09T05:22:31.999Z,95514.72
2022-10-09T05:24:58.900Z,95513.50
2022-10-09T05:27:25.689Z,95517.16
2022-10-09T05:29:52.494Z,95524.78
2022-10-09T05:32:19.331Z,95522.63
2022-10-09T05:34:46.113Z,95519.34
2022-10-09T05:37:12.935Z,95532.63
2022-10-09T05:39:39.743Z,95528.31
2022-10-09T05:42:06.883Z,95530.34
2022-10-09T05:44:33.665Z,95523.25
2022-10-09T05:47:00.468Z,95521.88
2022-10-09T05:49:27.306Z,95528.94
2022-10-09T05:51:56.219Z,95529.72
2022-10-09T05:54:23.374Z,95523.72
2022-10-09T05:56:50.327Z,95532.63
2022-10-09T05:59:20.098Z,95533.84
2022-10-09T06:01:50.330Z,95543.59
2022-10-09T06:04:25.152Z,95546.03
2022-10-09T06:06:52.218Z,95549.50
2022-10-09T06:09:25.630Z,95558.41
2022-10-09T06:11:53.949Z,95561.78
2022-10-09T06:14:25.181Z,95556.94
2022-10-09T06:16:52.148Z,95556.38
2022-10-09T06:19:20.304Z,95567.56
2022-10-09T06:21:48.036Z,95569.28
2022-10-09T06:24:28.761Z,95570.03
2022-10-09T06:26:57.216Z,95570.47
2022-10-09T06:29:24.121Z,95572.84
2022-10-09T06:31:51.012Z,95578.19
2022-10-09T06:34:17.953Z,95581.50
2022-10-09T06:36:45.186Z,95585.94
2022-10-09T06:39:11.998Z,95575.13
2022-10-09T06:41:38.884Z,95575.47
2022-10-09T06:44:24.355Z,95582.53
2022-10-09T06:46:52.731Z,95577.19
2022-10-09T06:49:20.497Z,95588.38
2022-10-09T06:51:47.524Z,95596.53
2022-10-09T06:54:17.547Z,95586.16
2022-10-09T06:56:46.176Z,95589.09
2022-10-09T06:59:13.033Z,95583.31
2022-10-09T07:01:40.169Z,95586.16
2022-10-09T07:04:14.556Z,95574.72
2022-10-09T07:06:44.250Z,95567.94
2022-10-09T07:09:13.933Z,95574.47
2022-10-09T07:11:45.245Z,95580.00
2022-10-09T07:14:14.413Z,95581.66
2022-10-09T07:16:45.287Z,95584.31
2022-10-09T07:19:13.574Z,95589.09
2022-10-09T07:21:43.139Z,95594.34
2022-10-09T07:24:11.188Z,95590.38
2022-10-09T07:26:41.619Z,95596.88
2022-10-09T07:29:10.137Z,95600.97
2022-10-09T07:31:37.286Z,95595.28
2022-10-09T07:34:04.345Z,95600.66
2022-10-09T07:36:31.256Z,95591.44
2022-10-09T07:38:58.724Z,95596.28
2022-10-09T07:41:28.272Z,95599.38
2022-10-09T07:43:55.552Z,95594.53
2022-10-09T07:46:24.075Z,95598.41
2022-10-09T07:48:51.349Z,95595.13
2022-10-09T07:51:29.114Z,95601.09
2022-10-09T07:53:57.462Z,95592.97
2022-10-09T07:56:25.398Z,95589.47
2022-10-09T07:58:57.968Z,95591.19
2022-10-09T08:01:28.202Z,95585.91
2022-10-09T08:03:56.489Z,95591.97
2022-10-09T08:06:26.372Z,95591.81
2022-10-09T08:08:55.311Z,95586.91
2022-10-09T08:11:24.484Z,95577.44
2022-10-09T08:13:51.707Z,95579.47
2022-10-09T08:16:20.800Z,95573.69
2022-10-09T08:18:48.533Z,95578.25
2022-10-09T08:21:18.757Z,95570.84
2022-10-09T08:23:46.031Z,95565.06
2022-10-09T08:26:19.249Z,95554.91
2022-10-09T08:28:58.019Z,95566.38
2022-10-09T08:31:25.756Z,95563.78
2022-10-09T08:33:57.363Z,95569.94
2022-10-09T08:36:25.205Z,95575.84
2022-10-09T08:38:52.991Z,95562.00
2022-10-09T08:41:48.909Z,95568.34
2022-10-09T08:44:36.840Z,95563.13
2022-10-09T08:47:19.567Z,95559.69
2022-10-09T08:49:54.878Z,95559.13
2022-10-09T08:52:24.955Z,95553.53
2022-10-09T08:54:54.156Z,95551.78
2022-10-09T08:57:23.496Z,95549.19
2022-10-09T08:59:50.563Z,95548.63
2022-10-09T09:02:35.736Z,95541.97
2022-10-09T09:05:05.553Z,95538.94
2022-10-09T09:08:00.257Z,95537.44
2022-10-09T09:10:35.547Z,95537.81
2022-10-09T09:13:14.487Z,95534.75
2022-10-09T09:15:50.819Z,95535.78
2022-10-09T09:18:17.841Z,95537.75
2022-10-09T09:21:02.712Z,95534.44
2022-10-09T09:23:34.457Z,95535.75
2022-10-09T09:26:02.339Z,95525.69
2022-10-09T09:28:33.422Z,95539.38
2022-10-09T09:31:36.815Z,95542.63
2022-10-09T09:34:03.597Z,95542.97
2022-10-09T09:36:36.200Z,95530.84
2022-10-09T09:40:07.836Z,95526.31
2022-10-09T09:42:02.653Z,95532.25
2022-10-09T09:44:31.971Z,95534.22
2022-10-09T09:46:59.126Z,95537.00
2022-10-09T09:49:28.978Z,95530.59
2022-10-09T09:52:00.416Z,95527.34
2022-10-09T09:54:30.354Z,95536.97
2022-10-09T09:57:13.063Z,95542.75
2022-10-09T09:59:44.136Z,95534.63
2022-10-09T10:02:29.316Z,95538.38
2022-10-09T10:05:01.152Z,95534.34
2022-10-09T10:07:37.412Z,95530.41
2022-10-09T10:10:10.082Z,95544.94
2022-10-09T10:12:46.399Z,95532.13
2022-10-09T10:15:27.868Z,95540.81
2022-10-09T10:18:16.500Z,95529.88
2022-10-09T10:20:49.543Z,95533.16
2022-10-09T10:23:39.769Z,95532.47
2022-10-09T10:26:24.890Z,95536.41
2022-10-09T10:29:03.894Z,95525.63
2022-10-09T10:31:49.387Z,95534.44
2022-10-09T10:34:25.008Z,95526.16
2022-10-09T10:37:13.769Z,95515.69
2022-10-09T10:39:47.716Z,95513.56
2022-10-09T10:42:24.648Z,95514.88
2022-10-09T10:45:04.437Z,95508.69
2022-10-09T10:47:37.265Z,95503.66
2022-10-09T10:50:04.789Z,95498.97
2022-10-09T10:53:07.797Z,95496.00
2022-10-09T10:56:04.161Z,95495.31
2022-10-09T10:59:06.990Z,95492.63
2022-10-09T11:01:47.735Z,95480.31
2022-10-09T11:04:42.541Z,95481.09
2022-10-09T11:07:37.193Z,95485.69
2022-10-09T11:10:20.698Z,95480.13
2022-10-09T11:12:52.137Z,95476.53
2022-10-09T11:15:23.842Z,95469.09
2022-10-09T11:18:10.589Z,95469.47
2022-10-09T11:21:14.544Z,95463.72
2022-10-09T11:23:53.530Z,95465.22
2022-10-09T11:26:28.954Z,95465.09
2022-10-09T11:29:29.666Z,95460.84
2022-10-09T11:32:04.281Z,95456.06
2022-10-09T11:34:43.692Z,95449.38
2022-10-09T11:37:28.728Z,95445.69
2022-10-09T11:39:56.611Z,95452.38
2022-10-09T11:42:25.847Z,95441.22
2022-10-09T11:45:17.765Z,95446.66
2022-10-09T11:48:01.254Z,95443.25
2022-10-09T11:50:54.053Z,95443.06
2022-10-09T11:53:24.946Z,95435.84
2022-10-09T11:56:06.321Z,95432.19
2022-10-09T11:58:33.778Z,95435.69
2022-10-09T12:01:23.343Z,95425.13
2022-10-09T12:04:08.309Z,95425.41
2022-10-09T12:06:48.598Z,95423.50
2022-10-09T12:09:32.846Z,95431.03
2022-10-09T12:12:09.243Z,95433.91
2022-10-09T12:14:38.568Z,95423.84
2022-10-09T12:17:34.399Z,95424.06
2022-10-09T12:20:16.666Z,95429.56
2022-10-09T12:23:07.417Z,95425.72
2022-10-09T12:25:46.022Z,95416.13
2022-10-09T12:28:42.450Z,95410.53
2022-10-09T12:31:20.050Z,95408.00
2022-10-09T12:33:56.331Z,95409.03
2022-10-09T12:36:29.515Z,95408.13
2022-10-09T12:38:56.580Z,95411.81
2022-10-09T12:41:28.215Z,95410.31
2022-10-09T12:43:57.602Z,95412.97
2022-10-09T12:46:36.138Z,95405.31
2022-10-09T12:49:05.121Z,95408.59
2022-10-09T12:51:33.751Z,95408.03
2022-10-09T12:54:07.842Z,95417.63
2022-10-09T12:56:38.666Z,95408.31
2022-10-09T12:59:07.297Z,95407.81
2022-10-09T13:01:35.123Z,95410.66
2022-10-09T13:04:05.033Z,95411.53
2022-10-09T13:06:52.854Z,95408.22
2022-10-09T13:09:34.741Z,95410.72
2022-10-09T13:12:26.349Z,95404.13
2022-10-09T13:15:00.805Z,95412.72
2022-10-09T13:17:33.739Z,95407.94
2022-10-09T13:20:21.985Z,95396.06
2022-10-09T13:22:58.035Z,95400.81
2022-10-09T13:25:33.243Z,95391.78
2022-10-09T13:28:00.087Z,95406.78
2022-10-09T13:30:28.685Z,95404.13
2022-10-09T13:32:55.574Z,95406.91
2022-10-09T13:35:22.474Z,95401.44
2022-10-09T13:37:49.941Z,95389.94
2022-10-09T13:40:20.909Z,95408.53
2022-10-09T13:42:53.340Z,95402.59
2022-10-09T13:45:20.993Z,95400.13
2022-10-09T13:47:48.052Z,95401.97
2022-10-09T13:50:15.597Z,95409.19
2022-10-09T13:52:42.729Z,95410.84
2022-10-09T13:55:10.255Z,95406.81
2022-10-09T13:57:37.010Z,95407.47
2022-10-09T14:00:06.221Z,95406.97
2022-10-09T14:02:39.031Z,95409.16
2022-10-09T14:05:06.283Z,95412.91
2022-10-09T14:07:33.100Z,95410.25
2022-10-09T14:09:59.920Z,95411.22
2022-10-09T14:12:27.050Z,95410.66
2022-10-09T14:14:54.629Z,95410.44
2022-10-09T14:17:24.100Z,95407.28
2022-10-09T14:19:55.162Z,95404.63
2022-10-09T14:22:22.000Z,95402.16
2022-10-09T14:24:48.817Z,95414.72
2022-10-09T14:27:16.901Z,95414.09
2022-10-09T14:29:43.944Z,95409.59
2022-10-09T14:32:10.809Z,95417.53
2022-10-09T14:34:37.587Z,95416.56
2022-10-09T14:37:13.598Z,95415.72
2022-10-09T14:39:46.933Z,95415.94
2022-10-09T14:42:13.732Z,95415.97
2022-10-09T14:44:40.890Z,95407.91
2022-10-09T14:47:07.716Z,95416.84
2022-10-09T14:49:34.556Z,95424.34
2022-10-09T14:52:01.458Z,95424.34
2022-10-09T14:54:28.277Z,95430.50
2022-10-09T14:56:55.067Z,95431.41
2022-10-09T14:59:21.860Z,95431.94
2022-10-09T15:01:48.795Z,95424.78
2022-10-09T15:04:16.124Z,95435.59
2022-10-09T15:06:43.064Z,95427.63
2022-10-09T15:09:09.892Z,95434.31
2022-10-09T15:11:37.380Z,95436.84
2022-10-09T15:14:08.319Z,95429.84
2022-10-09T15:16:35.559Z,95444.66
2022-10-09T15:19:02.982Z,95441.56
2022-10-09T15:21:32.061Z,95440.75
2022-10-09T15:24:00.525Z,95447.19
2022-10-09T15:26:29.412Z,95449.72
2022-10-09T15:28:56.130Z,95459.16
2022-10-09T15:31:30.483Z,95459.09
2022-10-09T15:33:58.841Z,95458.22
2022-10-09T15:36:26.017Z,95471.25
2022-10-09T15:38:53.031Z,95469.72
2022-10-09T15:41:29.187Z,95469.81
2022-10-09T15:43:59.258Z,95474.09
2022-10-09T15:46:26.715Z,95482.00
2022-10-09T15:48:54.355Z,95475.19
2022-10-09T15:51:21.586Z,95481.69
2022-10-09T15:53:50.235Z,95460.16
2022-10-09T15:56:23.308Z,95485.81
2022-10-09T15:58:51.522Z,95492.47
2022-10-09T16:01:19.310Z,95501.97
2022-10-09T16:03:46.661Z,95499.13
2022-10-09T16:06:18.013Z,95505.38
2022-10-09T16:08:46.315Z,95491.22
2022-10-09T16:11:14.879Z,95504.56
2022-10-09T16:13:44.322Z,95501.13
2022-10-09T16:16:15.627Z,95508.78
2022-10-09T16:18:45.744Z,95507.91
2022-10-09T16:21:16.389Z,95519.81
2022-10-09T16:23:44.879Z,95525.25
2022-10-09T16:26:14.483Z,95530.63
2022-10-09T16:28:41.644Z,95524.94
2022-10-09T16:31:08.775Z,95534.38
2022-10-09T16:33:35.612Z,95531.94
2022-10-09T16:36:10.757Z,95537.34
2022-10-09T16:38:38.576Z,95538.69
2022-10-09T16:41:11.081Z,95537.66
2022-10-09T16:43:39.332Z,95533.97
2022-10-09T16:46:24.324Z,95547.47
2022-10-09T16:48:52.813Z,95550.25
2022-10-09T16:51:25.505Z,95556.41
2022-10-09T16:53:54.175Z,95557.41
2022-10-09T16:56:27.226Z,95568.81
2022-10-09T16:58:58.702Z,95567.38
2022-10-09T17:01:26.713Z,95565.53
2022-10-09T17:03:55.256Z,95565.28
2022-10-09T17:06:25.451Z,95571.41
2022-10-09T17:08:58.312Z,95575.59
2022-10-09T17:11:27.248Z,95575.09
2022-10-09T17:13:57.937Z,95572.66
2022-10-09T17:16:27.633Z,95575.84
2022-10-09T17:18:54.572Z,95575.34
2022-10-09T17:21:21.530Z,95585.63
2022-10-09T17:23:52.399Z,95588.16
2022-10-09T17:26:19.735Z,95597.00
2022-10-09T17:28:47.842Z,95596.13
2022-10-09T17:31:17.993Z,95600.91
2022-10-09T17:33:48.436Z,95605.69
2022-10-09T17:36:20.800Z,95609.84
2022-10-09T17:38:48.908Z,95610.78
2022-10-09T17:41:17.917Z,95610.78
2022-10-09T17:43:45.456Z,95610.59
2022-10-09T17:46:14.915Z,95614.97
2022-10-09T17:48:45.326Z,95606.03
2022-10-09T17:51:21.283Z,95613.06
2022-10-09T17:53:49.026Z,95614.69
2022-10-09T17:56:16.050Z,95608.09
2022-10-09T17:58:44.683Z,95614.41
2022-10-09T18:01:12.548Z,95614.81
2022-10-09T18:03:39.428Z,95621.66
2022-10-09T18:06:08.732Z,95626.25
2022-10-09T18:08:36.247Z,95629.19
2022-10-09T18:11:16.088Z,95625.13
2022-10-09T18:13:44.058Z,95618.16
2022-10-09T18:16:14.572Z,95616.94
2022-10-09T18:18:42.357Z,95616.84
2022-10-09T18:21:13.142Z,95611.16
2022-10-09T18:23:40.744Z,95615.22
2022-10-09T18:26:12.863Z,95620.25
2022-10-09T18:28:40.531Z,95611.50
2022-10-09T18:31:11.515Z,95618.34
2022-10-09T18:33:38.480Z,95620.69
2022-10-09T18:36:20.242Z,95626.19
2022-10-09T18:38:50.832Z,95628.34
2022-10-09T18:41:19.328Z,95617.81
2022-10-09T18:43:47.732Z,95635.75
2022-10-09T18:46:16.803Z,95630.75
2022-10-09T18:48:44.661Z,95638.41
2022-10-09T18:51:16.587Z,95648.56
2022-10-09T18:53:47.809Z,95650.47
2022-10-09T18:56:17.831Z,95642.22
2022-10-09T18:58:44.801Z,95651.41
2022-10-09T19:01:12.275Z,95646.41
2022-10-09T19:03:39.106Z,95649.53
2022-10-09T19:06:06.237Z,95651.50
2022-10-09T19:08:34.655Z,95662.97
2022-10-09T19:11:01.482Z,95663.66
2022-10-09T19:13:28.434Z,95660.44
2022-10-09T19:15:58.835Z,95662.88
2022-10-09T19:18:26.696Z,95668.00
2022-10-09T19:20:53.705Z,95665.72
2022-10-09T19:23:20.543Z,95675.00
2022-10-09T19:25:52.153Z,95667.94
2022-10-09T19:28:20.948Z,95679.84
2022-10-09T19:30:47.846Z,95688.06
2022-10-09T19:33:15.103Z,95689.53
2022-10-09T19:35:52.891Z,95689.38
2022-10-09T19:38:21.013Z,95686.81
2022-10-09T19:40:48.849Z,95664.44
2022-10-09T19:43:17.375Z,95685.88
2022-10-09T19:45:45.313Z,95687.38
2022-10-09T19:48:12.213Z,95694.06
2022-10-09T19:50:44.037Z,95691.47
2022-10-09T19:53:12.449Z,95688.84
2022-10-09T19:55:39.406Z,95695.41
2022-10-09T19:58:06.879Z,95690.19
2022-10-09T20:00:33.877Z,95687.28
2022-10-09T20:03:00.830Z,95691.19
2022-10-09T20:05:27.725Z,95693.47
2022-10-09T20:07:54.472Z,95705.53
2022-10-09T20:10:21.330Z,95711.69
2022-10-09T20:12:48.565Z,95708.16
2022-10-09T20:15:15.593Z,95716.56
2022-10-09T20:17:42.460Z,95715.91
2022-10-09T20:20:09.617Z,95725.19
2022-10-09T20:22:36.468Z,95728.94
2022-10-09T20:25:04.475Z,95725.66
2022-10-09T20:27:31.619Z,95722.09
2022-10-09T20:29:58.652Z,95721.78
2022-10-09T20:32:25.691Z,95724.69
2022-10-09T20:34:52.539Z,95725.97
2022-10-09T20:37:19.444Z,95724.03
2022-10-09T20:39:46.359Z,95719.00
2022-10-09T20:42:13.467Z,95721.13
2022-10-09T20:44:40.374Z,95731.50
2022-10-09T20:47:07.250Z,95727.94
2022-10-09T20:49:34.087Z,95722.41
2022-10-09T20:52:01.105Z,95727.78
2022-10-09T20:54:27.973Z,95729.56
2022-10-09T20:56:54.783Z,95732.16
2022-10-09T20:59:21.685Z,95724.69
2022-10-09T21:01:48.708Z,95729.53
2022-10-09T21:04:15.666Z,95726.94
2022-10-09T21:06:42.956Z,95731.81
2022-10-09T21:09:09.734Z,95727.94
2022-10-09T21:11:37.285Z,95730.34
2022-10-09T21:14:04.085Z,95725.28
2022-10-09T21:16:30.891Z,95724.31
2022-10-09T21:19:01.092Z,95722.69
2022-10-09T21:21:29.302Z,95724.31
2022-10-09T21:23:57.563Z,95723.97
2022-10-09T21:26:25.762Z,95717.16
2022-10-09T21:28:59.663Z,95722.34
2022-10-09T21:31:30.233Z,95722.34
2022-10-09T21:33:58.103Z,95730.31
2022-10-09T21:36:30.721Z,95725.59
2022-10-09T21:38:58.073Z,95723.31
2022-10-09T21:41:25.392Z,95716.50
2022-10-09T21:43:52.247Z,95724.13
2022-10-09T21:46:19.401Z,95730.47
2022-10-09T21:48:46.170Z,95718.09
2022-10-09T21:51:13.006Z,95720.69
2022-10-09T21:53:39.968Z,95721.34
2022-10-09T21:56:07.338Z,95727.47
2022-10-09T21:58:34.169Z,95724.53
2022-10-09T22:01:02.855Z,95722.88
2022-10-09T22:03:32.980Z,95724.03
2022-10-09T22:06:00.473Z,95727.44
2022-10-09T22:08:27.671Z,95715.91
2022-10-09T22:10:54.442Z,95714.44
2022-10-09T22:13:22.068Z,95718.97
2022-10-09T22:15:51.297Z,95721.50
2022-10-09T22:18:18.849Z,95726.69
2022-10-09T22:20:49.223Z,95724.28
2022-10-09T22:23:20.054Z,95721.03
2022-10-09T22:25:58.264Z,95727.84
2022-10-09T22:28:25.166Z,95721.78
2022-10-09T22:31:08.452Z,95727.56
2022-10-09T22:33:36.024Z,95727.72
2022-10-09T22:36:16.056Z,95738.63
2022-10-09T22:38:47.448Z,95734.34
2022-10-09T22:41:20.058Z,95738.22
2022-10-09T22:43:50.100Z,95744.84
2022-10-09T22:46:23.260Z,95747.91
2022-10-09T22:48:51.011Z,95751.78
2022-10-09T22:51:19.587Z,95757.94
2022-10-09T22:53:47.044Z,95757.56
2022-10-09T22:56:17.716Z,95765.13
2022-10-09T22:58:45.827Z,95755.50
2022-10-09T23:01:16.233Z,95769.16
2022-10-09T23:03:43.540Z,95764.25
2022-10-09T23:06:15.687Z,95769.06
2022-10-09T23:08:44.161Z,95768.41
2022-10-09T23:11:12.126Z,95768.94
2022-10-09T23:13:39.274Z,95779.59
2022-10-09T23:16:09.594Z,95772.78
2022-10-09T23:18:37.096Z,95773.75
2022-10-09T23:21:09.888Z,95773.59
2022-10-09T23:23:36.797Z,95778.13
2022-10-09T23:26:09.316Z,95781.53
2022-10-09T23:28:36.812Z,95773.91
2022-10-09T23:31:14.318Z,95773.06
2022-10-09T23:33:43.863Z,95775.84
2022-10-09T23:36:12.916Z,95768.81
2022-10-09T23:38:40.292Z,95772.81
2022-10-09T23:41:09.544Z,95766.94
2022-10-09T23:43:37.374Z,95768.44
2022-10-09T23:46:06.421Z,95776.22
2022-10-09T23:48:34.078Z,95768.88
2022-10-09T23:51:01.080Z,95786.38
2022-10-09T23:53:28.433Z,95792.38
2022-10-09T23:55:55.373Z,95787.84
2022-10-09T23:58:23.118Z,95795.13
